Terminal Aerodrome Forecast
Issued by NWS Pocatello, ID

Home | Current Version | Previous Version | Text Only | Print | Product List | Glossary On
Versions: 1 2 3 4 5 6 7 8 9 10 11 12 13 14
000
FTUS45 KPIH 030520
TAFPIH
TAF
KPIH 030520Z 0306/0406 22010KT P6SM SCT090
     FM031900 25012G22KT P6SM SCT090
     FM032200 27015G25KT P6SM VCTS SCT080CB
     FM040200 21008KT P6SM SCT200=

USA.gov is the U.S. government's official web portal to all federal, state and local government web resources and services.